Date,TemperatureHighF,TemperatureAvgF,TemperatureLowF,DewpointHighF,DewpointAvgF,DewpointLowF,HumidityHigh,HumidityAvg,HumidityLow,PressureMaxIn,PressureMinIn,WindSpeedMaxMPH,WindSpeedAvgMPH,GustSpeedMaxMPH,PrecipitationSumIn
2013-1-1,22.8,19.8,17.4,15.4,12.7,9.3,80,74,67,30.08,29.95,17,3,37,0.00
2013-1-2,24.4,21.9,19.9,19.6,16.3,12.9,84,79,72,30.06,29.93,13,2,23,0.00
2013-1-3,27.9,25.6,22.3,22.8,20.5,18.1,87,81,74,30.01,29.90,18,4,31,0.00
2013-1-4,30.9,25.9,24.1,25.3,20.8,18.9,88,81,75,30.05,29.81,20,6,34,0.00
2013-1-5,37.0,29.5,18.7,29.5,22.9,14.2,86,77,63,30.14,29.80,12,3,20,0.04
2013-1-6,34.5,30.4,26.4,30.0,24.5,20.1,85,79,76,30.20,29.75,13,1,32,0.00
2013-1-7,39.7,32.1,24.6,28.6,23.0,17.8,78,70,56,30.20,29.85,23,8,36,0.08
2013-1-8,48.4,35.5,28.2,32.4,27.6,23.9,86,74,51,30.10,29.91,15,3,31,0.11
2013-1-9,38.1,35.4,27.0,31.4,26.7,20.8,80,71,65,30.37,29.75,22,7,34,0.00
2013-1-10,43.9,31.3,18.0,29.5,22.0,14.5,89,70,46,30.49,30.05,15,2,21,0.00
2013-1-11,43.5,39.8,34.7,40.1,35.9,24.4,89,86,60,30.05,29.62,16,6,25,0.30
2013-1-12,53.2,44.1,33.4,45.0,37.0,27.0,89,77,55,29.91,29.59,21,6,35,0.00
2013-1-13,33.4,30.0,25.5,28.6,26.6,20.3,89,87,81,29.92,29.78,11,1,20,0.04
2013-1-14,25.3,21.0,17.4,20.5,14.6,10.2,87,77,61,30.30,29.92,15,3,29,0.00
2013-1-15,27.1,21.5,10.9,17.2,13.4,5.4,80,71,60,30.31,30.00,15,4,29,0.00
2013-1-16,29.3,24.9,19.6,25.5,19.3,12.9,88,80,67,30.00,29.59,19,6,35,0.00
2013-1-17,22.3,14.3,11.8,15.4,6.5,-0.2,83,71,57,30.26,29.92,21,6,28,0.00
2013-1-18,37.0,19.6,11.1,31.5,13.6,2.5,87,78,66,30.29,29.68,13,5,22,0.00
2013-1-19,37.2,33.0,25.9,33.6,29.4,23.0,89,87,80,29.77,29.38,27,4,44,0.13
2013-1-20,25.9,13.6,9.1,23.0,8.2,3.4,89,79,68,30.08,29.41,30,10,44,0.00
2013-1-21,10.0,6.5,-0.4,6.3,2.0,-4.9,85,82,70,30.01,29.87,21,3,29,0.00
2013-1-22,5.4,2.5,-0.6,0.5,-2.3,-5.1,82,80,74,30.15,29.98,16,5,30,0.00
2013-1-23,12.4,8.8,3.9,7.9,4.5,-0.2,85,83,78,30.16,29.96,7,0,34,0.00
2013-1-24,16.0,3.1,-11.4,6.8,-3.5,-16.2,85,75,52,30.57,30.16,0,0,0,0.00
2013-1-25,18.7,13.0,5.2,13.1,7.4,-0.9,84,79,69,30.40,29.90,15,4,20,0.01
2013-1-26,34.0,18.5,9.0,21.4,12.2,4.8,87,78,54,30.34,29.97,6,0,7,0.00
2013-1-27,29.8,24.7,17.2,24.4,19.0,12.0,88,79,67,30.35,29.99,16,4,28,0.00
2013-1-28,33.6,29.8,27.3,30.6,26.7,23.5,89,88,86,29.99,29.77,14,2,21,0.00
2013-1-29,49.8,38.3,28.8,46.2,35.1,25.3,89,88,87,29.94,29.40,15,4,22,0.38
2013-1-30,34.9,30.6,18.7,31.8,27.5,15.3,90,89,87,29.43,29.07,12,1,15,0.25
2013-1-31,18.7,15.1,13.5,15.3,10.9,8.4,88,84,74,29.79,29.18,0,0,0,0.00
2013-2-1,15.4,12.6,9.0,10.2,7.7,4.1,86,81,71,30.06,29.78,16,2,31,0.00
2013-2-2,22.6,9.1,-0.8,10.4,3.0,-5.6,85,77,53,30.02,29.95,16,1,21,0.00
2013-2-3,17.2,11.3,3.0,12.0,5.7,-1.5,86,78,68,29.95,29.74,17,5,34,0.00
2013-2-4,23.7,12.6,5.2,13.1,6.0,0.7,82,75,58,29.92,29.85,10,1,20,0.00
2013-2-5,21.9,13.8,2.1,18.0,8.7,-2.6,85,80,69,29.94,29.63,19,4,31,0.00
2013-2-6,28.0,18.7,10.9,18.1,11.3,5.2,86,73,55,30.18,29.94,12,2,23,0.00
2013-2-7,28.8,24.9,20.1,24.8,21.4,16.5,88,87,84,30.16,30.02,0,0,0,0.00
2013-2-8,26.8,17.2,-1.7,17.2,11.5,-6.3,87,79,65,30.34,30.03,14,1,17,0.00
2013-2-9,33.6,12.0,-11.6,17.6,3.4,-16.4,85,70,46,30.36,30.14,12,2,22,0.00
2013-2-10,37.2,28.6,16.0,33.1,21.6,11.3,88,76,60,30.15,29.47,18,5,30,0.02
2013-2-11,39.7,33.6,26.2,36.1,29.8,19.6,89,86,76,29.74,29.31,25,8,36,0.04
2013-2-12,26.8,24.7,23.5,21.6,19.3,16.7,85,80,74,29.91,29.74,21,5,34,0.00
2013-2-13,37.8,30.5,23.4,28.4,24.6,18.5,85,79,68,29.80,29.62,13,3,29,0.00
2013-2-14,35.2,30.6,21.7,31.8,27.1,18.0,89,87,82,29.80,29.54,8,1,16,0.08
2013-2-15,22.3,18.6,13.8,18.1,13.0,7.5,85,79,69,30.06,29.80,18,5,25,0.00
2013-2-16,25.2,11.4,-7.8,14.0,4.5,-13.2,86,74,48,30.10,29.99,12,1,15,0.02
2013-2-17,20.1,8.9,-8.9,12.9,2.9,-13.9,84,77,64,30.14,30.05,8,1,8,0.00
2013-2-18,37.9,28.1,15.6,32.7,18.1,7.7,88,67,56,30.05,29.39,18,9,29,0.04
2013-2-19,39.7,25.9,13.6,36.5,22.4,9.9,89,87,84,29.80,29.15,33,12,44,0.06
2013-2-20,17.4,12.9,10.2,12.7,7.6,3.7,87,80,74,30.24,29.80,24,9,34,0.00
2013-2-21,29.1,16.5,10.6,13.5,8.7,5.9,84,72,51,30.38,30.23,11,1,18,0.00
2013-2-22,28.9,24.9,16.0,24.3,20.8,11.8,87,85,80,30.25,29.76,14,2,20,0.00
2013-2-23,32.7,27.5,24.4,26.8,23.7,20.8,89,86,74,29.80,29.71,8,0,15,0.02
2013-2-24,34.2,27.1,14.7,27.0,22.5,11.7,89,83,66,30.09,29.77,15,2,18,0.02
2013-2-25,36.3,30.9,27.3,25.9,24.0,21.9,88,77,60,30.15,30.07,10,1,20,0.00
2013-2-26,36.1,30.2,22.6,25.3,23.0,17.2,83,75,63,30.13,29.72,16,2,28,0.00
2013-2-27,36.0,31.9,30.4,29.7,27.6,24.8,89,85,77,29.72,29.60,9,1,25,0.00
2013-2-28,31.1,29.0,22.8,28.0,22.9,14.2,89,78,66,30.04,29.65,11,1,23,0.02
2013-3-1,25.9,19.1,13.6,15.1,11.1,6.3,79,71,63,30.17,30.04,16,3,29,0.00
2013-3-2,24.8,16.5,7.3,16.0,9.6,2.3,82,74,64,30.14,30.05,17,3,22,0.00
2013-3-3,24.8,11.2,-8.0,15.6,4.6,-12.5,88,75,62,30.05,29.99,16,2,22,0.00
2013-3-4,29.8,12.8,-5.6,17.6,4.4,-10.1,88,71,47,30.12,30.04,14,2,25,0.00
2013-3-5,37.9,18.3,-4.2,22.3,10.5,-8.7,86,73,52,30.11,29.96,12,1,27,0.00
2013-3-6,44.8,31.9,23.9,30.2,25.5,18.3,88,78,55,30.22,30.03,14,2,21,0.00
2013-3-7,28.8,25.0,22.3,22.3,18.3,16.2,87,76,65,30.44,30.22,14,3,36,0.00
2013-3-8,46.9,24.2,9.1,30.9,17.2,5.4,87,76,48,30.51,30.37,11,1,12,0.02
2013-3-9,43.5,31.7,16.3,31.6,22.1,12.9,88,70,46,30.37,29.95,14,4,20,0.21
2013-3-10,41.0,37.3,34.5,37.8,33.8,31.5,89,88,82,29.96,29.78,12,3,62,0.57
2013-3-11,50.7,38.9,31.8,43.5,35.3,28.6,89,88,74,29.81,29.44,12,2,62,0.47
2013-3-12,31.6,26.5,21.4,28.8,22.9,17.8,89,87,79,29.85,29.50,0,0,0,0.00
2013-3-13,27.7,22.1,17.2,17.8,15.6,12.7,88,77,59,30.19,29.84,61,3,61,0.02
2013-3-14,34.9,26.3,11.5,23.2,17.1,7.5,87,69,52,30.23,29.99,15,3,20,0.08
2013-3-15,30.7,26.1,20.5,21.2,16.4,10.2,75,67,59,29.96,29.91,19,4,25,0.02
2013-3-16,30.4,19.6,11.5,16.5,10.9,3.6,84,69,53,30.02,29.89,14,2,24,0.02
2013-3-17,32.0,21.2,13.3,17.4,7.4,3.7,87,57,35,30.32,30.01,20,3,35,0.00
2013-3-18,40.1,25.9,13.8,26.1,17.1,6.1,87,71,43,30.21,29.49,20,5,32,0.00
2013-3-19,29.8,24.4,20.5,26.6,20.1,14.9,88,84,71,29.82,29.44,19,6,28,0.00
2013-3-20,24.4,21.6,18.3,18.7,14.2,9.1,87,73,62,29.87,29.81,22,8,30,0.00
2013-3-21,25.9,24.1,22.3,21.9,18.8,16.3,88,80,70,29.94,29.81,18,6,26,0.00
2013-3-22,30.4,26.4,21.4,23.5,20.7,16.2,87,79,74,30.05,29.92,16,5,34,0.00
2013-3-23,39.4,29.6,24.8,27.0,22.7,20.1,85,76,56,30.12,30.05,14,3,25,0.00
2013-3-24,39.4,30.3,19.8,25.5,20.3,12.9,86,68,44,30.09,29.85,11,1,22,0.00
2013-3-25,38.8,31.4,20.8,27.1,23.7,15.3,83,74,59,30.00,29.82,19,3,27,0.00
2013-3-26,41.4,33.7,28.8,30.2,25.9,22.1,88,74,50,30.14,30.00,20,5,29,0.00
2013-3-27,40.1,34.0,22.8,28.8,26.3,19.8,89,74,61,30.22,30.14,19,7,25,0.00
2013-3-28,43.3,34.4,23.5,30.9,24.3,19.4,88,68,47,30.28,30.21,57,3,57,0.00
2013-3-29,45.0,32.0,16.0,35.1,20.1,12.6,88,65,39,30.30,30.22,29,2,29,0.00
2013-3-30,48.9,33.1,17.4,34.7,19.6,13.5,86,63,32,30.22,29.84,15,3,64,0.00
2013-3-31,42.4,33.8,26.4,34.3,28.1,18.5,89,80,70,29.75,29.58,26,9,37,0.04
2013-4-1,27.0,23.3,15.1,19.2,16.0,7.3,88,74,60,30.07,29.74,28,11,43,0.00
2013-4-2,30.4,25.1,16.5,19.0,14.3,8.1,75,64,53,30.25,30.03,24,8,31,0.00
2013-4-3,37.9,26.1,14.7,18.1,13.9,8.2,78,61,42,30.43,30.25,18,3,27,0.00
2013-4-4,47.3,34.7,23.5,33.1,22.2,9.3,88,62,40,30.28,29.94,19,5,30,0.02
2013-4-5,36.5,30.2,23.5,28.4,20.0,16.0,84,66,49,30.24,30.02,18,4,27,0.00
2013-4-6,43.7,31.5,21.2,29.5,23.8,15.8,86,74,56,30.22,29.58,25,6,36,0.04
2013-4-7,47.5,37.7,28.0,43.0,31.8,24.3,89,80,56,30.05,29.42,20,7,31,0.14
2013-4-8,40.6,34.2,25.9,35.6,29.9,22.6,89,85,72,30.05,29.78,13,1,29,0.27
2013-4-9,43.3,37.0,32.5,38.5,33.6,29.7,89,88,83,30.12,29.99,6,0,12,0.20
2013-4-10,32.5,32.3,32.2,29.7,29.5,29.3,89,89,89,30.12,30.06,5,0,5,0.00
2013-4-11,33.8,30.4,28.6,25.0,23.0,19.6,86,74,59,30.02,29.81,16,5,33,0.02
2013-4-12,37.8,32.1,27.5,32.7,28.2,24.1,89,85,81,29.81,29.61,15,1,24,0.27
2013-4-13,37.0,32.5,30.4,32.2,28.2,25.3,89,85,69,29.92,29.69,18,3,34,0.10
2013-4-14,48.0,35.2,21.7,29.3,25.0,18.7,89,68,45,30.08,29.92,19,3,29,0.00
2013-4-15,51.4,44.5,36.9,48.2,38.6,27.0,89,80,68,29.93,29.75,16,5,25,0.26
2013-4-16,48.6,39.8,31.5,40.3,30.5,26.2,88,71,51,30.34,29.88,20,4,31,0.00
2013-4-17,48.9,36.5,23.2,34.5,28.7,20.3,89,75,53,30.41,30.10,15,2,22,0.04
2013-4-18,50.7,43.1,36.0,46.9,39.7,32.2,89,88,83,30.10,29.38,15,1,22,0.51
2013-4-19,56.5,38.6,26.4,53.1,31.9,16.5,89,77,60,29.68,29.24,26,10,45,0.06
2013-4-20,26.2,26.1,25.9,18.5,18.4,18.3,74,73,72,29.68,29.68,15,14,25,0.00
2013-4-21,46.0,38.0,25.9,18.8,17.6,16.9,74,48,31,30.52,29.68,13,13,14,0.00
2013-4-22,65.5,52.8,34.2,36.9,32.9,27.9,81,50,32,30.29,30.14,14,4,31,0.00
2013-4-23,58.6,44.7,32.2,46.2,34.8,29.3,89,70,48,30.15,29.88,16,5,34,0.25
2013-4-24,45.5,35.7,28.4,30.7,27.4,21.4,89,74,45,30.02,29.92,16,3,29,0.10
2013-4-25,47.5,38.1,28.8,34.0,28.5,23.0,86,69,46,30.29,29.93,22,6,31,0.00
2013-4-26,63.3,47.1,28.2,40.8,32.4,23.4,85,59,37,30.37,30.17,18,4,32,0.00
2013-4-27,72.7,58.8,42.6,50.5,45.3,36.1,79,63,34,30.25,30.12,14,3,33,0.04
2013-4-28,75.7,56.3,34.7,48.2,39.9,31.3,88,59,30,30.12,29.84,14,2,29,0.00
2013-4-29,67.6,56.1,46.9,55.0,49.9,43.0,88,81,59,29.91,29.86,9,2,34,0.08
2013-4-30,74.3,62.6,52.2,59.5,54.7,48.6,88,77,58,29.94,29.81,23,7,38,0.17
2013-5-1,78.4,66.5,47.8,61.2,54.7,38.1,85,67,54,30.30,29.93,16,4,34,0.00
2013-5-2,71.2,50.1,38.3,50.9,39.9,33.4,86,70,46,30.32,30.17,20,2,32,0.00
2013-5-3,80.1,57.0,36.3,55.8,44.2,32.4,87,65,41,30.24,30.07,12,1,33,0.00
2013-5-4,80.8,66.4,45.9,52.5,43.1,25.7,83,46,25,30.16,30.06,16,3,35,0.00
2013-5-5,82.2,61.5,38.5,48.0,39.1,28.9,86,47,26,30.17,30.05,15,2,32,0.00
2013-5-6,79.0,62.9,39.7,46.4,39.9,33.4,84,46,25,30.14,30.03,21,1,34,0.00
2013-5-7,83.8,63.8,39.7,46.2,39.1,34.3,83,46,19,30.13,30.01,15,1,31,0.00
2013-5-8,81.7,64.9,43.9,51.3,43.6,38.7,84,50,26,30.08,30.01,14,1,36,0.00
2013-5-9,78.1,57.4,41.9,52.0,44.1,37.9,87,65,34,30.05,29.96,17,1,31,0.10
2013-5-10,49.1,41.2,37.4,45.3,37.3,33.8,88,86,84,30.06,29.97,11,0,18,0.67
2013-5-11,50.9,38.9,31.1,43.5,34.8,27.9,89,85,74,29.97,29.73,10,1,33,0.02
2013-5-16,64.8,55.6,39.4,46.0,40.1,32.0,83,58,44,30.11,30.01,16,3,31,0.00
2013-5-17,75.0,53.2,34.5,47.1,40.4,30.9,89,65,42,30.24,30.11,10,1,32,0.00
2013-5-18,72.0,59.3,49.8,50.0,45.3,37.6,80,61,43,30.23,30.06,11,2,20,0.00
2013-5-19,85.3,70.9,58.8,64.6,54.7,43.5,75,57,47,30.06,29.87,12,2,31,1.58
2013-5-20,87.1,70.8,63.3,70.3,62.6,55.0,88,76,52,29.92,29.72,12,1,21,0.22
2013-5-21,81.9,66.4,57.9,66.6,59.9,53.4,88,81,54,29.82,29.69,16,1,37,0.39
2013-5-22,66.4,58.3,52.3,61.7,54.6,49.1,89,88,84,29.78,29.70,6,0,14,0.35
2013-5-23,52.7,46.5,38.5,49.1,40.7,33.1,89,81,61,30.27,29.77,18,3,35,0.66
2013-5-24,56.5,43.1,30.0,38.5,33.2,26.8,89,70,44,30.43,30.27,16,2,32,0.00
2013-5-25,64.8,47.6,28.9,44.4,35.2,18.9,89,66,38,30.47,30.35,16,1,31,0.00
2013-5-26,38.3,33.8,30.9,34.0,30.2,27.7,88,87,84,30.39,29.91,0,0,15,0.40
2013-5-27,72.1,69.3,67.1,39.7,39.3,38.7,37,34,30,30.25,30.13,2,1,3,0.00
2013-5-28,59.7,56.0,52.5,55.8,49.1,44.6,87,78,70,29.93,29.76,1,0,4,0.29
2013-6-2,58.8,45.4,35.1,55.2,40.7,31.5,89,84,71,30.08,29.65,20,6,32,0.06
2013-6-3,62.8,47.0,31.8,46.0,37.5,28.8,89,72,40,30.18,30.06,17,3,34,0.03
2013-6-4,66.0,50.8,31.6,47.1,38.7,28.4,89,67,39,30.28,30.13,10,0,25,0.00
2013-6-5,61.5,54.5,48.6,53.8,47.8,37.8,87,79,66,30.31,30.14,8,0,14,0.00
2013-6-6,72.0,59.5,49.6,52.2,43.8,36.5,77,57,38,30.15,30.00,12,2,32,0.01
2013-6-7,75.4,60.4,43.0,49.8,43.9,39.0,88,59,19,30.06,29.95,13,0,27,0.00
2013-6-8,71.2,57.6,41.0,56.7,45.7,37.2,92,68,36,30.13,29.98,10,1,19,0.02
2013-6-9,77.2,61.7,40.3,58.6,49.5,36.9,88,67,47,30.18,30.05,11,2,29,0.00
2013-6-10,75.0,65.0,58.6,64.4,56.7,49.6,87,75,59,30.05,29.86,10,1,19,0.00
2013-6-11,77.9,65.0,57.7,72.5,58.4,50.2,88,80,61,29.95,29.87,13,1,31,0.01
2013-6-12,82.9,66.9,51.6,63.9,54.5,48.0,89,68,37,29.99,29.81,10,1,28,0.01
2013-6-13,73.6,61.4,50.0,61.5,53.2,46.0,88,76,60,30.08,29.80,19,2,36,0.02
2013-6-14,75.4,58.6,41.7,51.4,44.0,34.3,89,63,32,30.19,30.07,14,1,32,0.00
2013-6-15,78.1,60.4,41.2,59.7,49.6,36.9,88,70,44,30.12,29.89,10,0,34,0.00
2013-6-16,78.4,64.5,55.9,65.5,58.0,52.3,89,81,53,29.92,29.79,13,2,31,0.63
2013-6-17,73.0,60.5,51.6,60.4,53.7,47.7,89,79,59,30.08,29.87,13,1,20,0.01
2013-6-18,73.2,58.9,42.8,55.8,45.9,39.4,89,67,32,30.18,30.07,15,1,31,0.00
2013-6-19,77.2,58.2,38.8,52.2,44.3,35.2,89,64,34,30.25,30.16,14,1,33,0.03
2013-6-20,84.6,65.6,43.3,60.1,51.1,40.3,89,64,35,30.23,30.16,10,1,32,0.00
2013-6-21,84.6,70.4,53.4,67.1,59.6,49.8,89,70,52,30.23,29.99,18,3,33,0.00
2013-6-22,81.5,67.3,55.9,67.8,61.1,57.4,92,81,62,30.14,30.02,11,2,30,0.00
2013-6-23,87.4,78.5,61.2,72.0,67.1,54.3,88,69,53,30.09,29.92,12,2,31,0.03
2013-6-24,90.9,77.2,69.4,73.6,67.9,64.9,86,74,59,30.04,29.92,12,2,36,0.00
2013-6-25,81.1,72.6,64.0,68.9,64.7,60.1,87,77,63,29.94,29.88,12,2,34,0.00
2013-6-26,94.6,73.5,50.5,71.4,62.9,53.4,88,72,39,29.93,29.81,11,0,29,0.00
2013-6-27,87.1,71.2,61.9,68.9,63.4,55.8,89,78,49,29.86,29.73,12,1,31,0.02
2013-6-28,78.6,67.0,55.9,66.6,59.9,52.3,92,79,62,29.73,29.63,8,1,12,0.00
2013-6-29,77.5,67.2,59.7,62.4,58.6,52.9,89,75,56,29.87,29.68,10,1,28,0.00
2013-6-30,79.9,66.9,50.9,57.6,51.9,46.8,89,62,35,30.11,29.86,21,1,30,0.15
2013-7-1,81.1,63.2,45.0,60.4,49.4,39.0,89,64,39,30.23,30.10,9,1,30,0.00
2013-7-2,80.1,59.8,40.6,54.1,46.1,32.5,89,65,32,30.24,30.12,10,0,31,0.00
2013-7-3,81.5,66.5,51.1,63.8,54.4,46.4,87,67,44,30.18,30.08,9,1,32,0.00
2013-7-4,79.9,67.9,58.3,65.7,60.3,52.3,89,78,55,30.15,30.06,10,1,32,0.16
2013-7-5,90.1,74.2,55.8,67.5,61.2,56.7,88,67,41,30.14,30.05,14,2,32,0.00
2013-7-6,90.3,75.6,64.0,66.6,61.0,51.4,82,63,40,30.13,30.03,13,2,35,0.00
2013-7-7,88.5,72.7,58.3,70.2,63.2,54.7,89,74,46,30.06,29.98,10,1,31,0.13
2013-7-8,76.5,70.0,66.0,71.2,66.1,55.6,90,88,82,30.06,29.98,9,1,22,0.57
2013-7-9,85.3,73.8,66.9,72.9,67.5,63.5,90,82,64,30.05,29.80,9,0,12,0.02
2013-7-10,73.0,68.3,55.6,67.8,62.3,50.2,90,82,62,30.02,29.76,17,5,30,0.22
2013-7-11,78.4,64.0,49.6,61.2,54.6,46.8,90,73,50,30.16,30.02,13,2,34,0.79
2013-7-12,88.2,66.9,46.6,63.1,53.8,43.7,90,67,34,30.30,30.12,9,1,18,0.79
2013-7-13,89.8,73.1,57.9,72.1,60.2,52.2,87,66,42,30.28,30.17,13,1,34,0.79
2013-7-14,92.3,74.4,56.8,70.3,62.5,53.6,89,69,43,30.35,30.26,9,1,32,0.79
2013-7-15,93.7,77.5,60.8,72.0,65.2,57.6,89,69,43,30.37,30.30,9,0,32,0.00
2013-7-16,95.2,79.4,63.5,75.4,68.8,55.4,89,72,48,30.36,30.26,13,1,32,0.00
2013-7-17,94.6,83.2,73.0,75.9,71.6,68.5,87,70,46,30.30,30.18,13,2,32,0.00
2013-7-18,92.8,81.7,71.4,76.7,72.0,67.6,88,74,54,30.20,29.87,17,2,34,0.79
2013-7-19,87.4,79.1,64.8,75.4,69.6,59.5,88,73,62,29.88,29.72,19,3,35,0.00
2013-7-20,73.8,65.1,49.3,61.2,53.6,44.8,93,69,42,30.07,29.82,18,2,33,0.78
2013-7-21,79.5,61.0,40.8,60.6,51.5,37.6,89,73,42,30.11,30.01,10,1,19,0.00
2013-7-22,90.7,74.4,61.7,68.4,62.7,53.2,86,69,50,30.01,29.73,14,2,33,0.00
2013-7-23,75.4,62.5,52.2,65.7,54.6,45.7,89,76,62,30.00,29.71,20,4,34,0.28
2013-7-24,75.2,59.4,41.5,55.0,48.5,35.2,89,70,47,30.13,30.00,11,1,32,0.00
2013-7-25,82.9,63.9,44.1,60.1,51.8,35.4,90,68,41,30.14,30.05,11,1,34,0.39
2013-7-26,78.1,64.7,57.2,69.1,58.3,52.7,89,80,63,30.08,29.90,13,2,35,0.41
2013-7-27,61.5,58.6,55.2,58.3,54.8,50.5,90,87,80,29.92,29.83,11,2,31,0.00
2013-7-28,65.8,56.4,52.5,56.1,52.0,49.6,98,86,65,29.95,29.80,14,1,20,0.02
2013-7-29,70.5,58.7,51.4,58.8,53.3,48.0,90,83,63,30.23,29.95,16,2,24,0.02
2013-7-30,79.0,60.5,45.3,61.7,53.5,42.6,90,79,51,30.28,30.16,9,0,16,0.04
2013-7-31,79.2,68.4,55.0,64.9,59.8,51.6,90,75,57,30.16,29.90,13,1,30,1.80
2013-8-1,74.5,64.5,55.8,64.2,56.8,50.9,90,78,54,29.93,29.83,16,2,31,1.57
2013-8-2,75.4,63.3,51.4,62.8,55.9,48.6,90,78,54,29.93,29.81,14,2,23,0.00
2013-8-3,69.1,59.6,48.7,57.7,52.6,45.9,90,79,63,30.10,29.93,16,3,35,0.00
2013-8-4,73.0,60.6,48.0,54.3,49.9,37.8,90,70,44,30.22,30.10,13,2,33,0.00
2013-8-5,76.3,58.3,41.7,57.4,49.9,39.0,90,76,45,30.13,29.91,7,1,14,0.08
2013-8-6,79.5,69.1,58.3,66.2,60.6,52.3,88,75,63,29.91,29.81,10,2,31,1.49
2013-8-7,75.4,67.1,55.0,65.5,61.4,53.8,90,82,67,29.99,29.69,17,3,33,0.00
2013-8-8,79.0,61.7,45.3,60.6,51.4,42.6,90,72,46,30.06,29.99,12,1,35,0.02
2013-8-9,76.8,61.5,46.2,61.5,52.3,43.5,90,74,53,30.06,29.92,18,3,39,0.00
2013-8-10,74.1,58.8,43.5,57.4,49.5,40.8,90,74,48,30.16,30.05,13,2,26,0.00
2013-8-11,79.3,62.3,46.4,62.8,53.1,43.7,98,75,46,30.12,30.03,10,1,30,0.00
2013-8-12,79.9,63.6,50.7,63.1,56.2,47.8,91,78,51,30.05,29.84,15,2,28,0.00
2013-8-13,64.6,56.8,50.7,51.3,47.0,38.3,81,70,54,30.12,29.95,16,2,34,0.02
2013-8-14,70.2,56.7,42.3,57.2,47.5,39.4,90,73,51,30.18,30.09,14,2,31,0.00
2013-8-15,77.7,60.8,45.5,58.8,49.9,38.8,90,71,40,30.13,30.06,11,2,31,0.00
2013-8-16,83.1,62.0,43.7,62.1,51.1,35.8,91,72,40,30.21,30.12,8,0,30,0.00
2013-8-17,89.6,64.7,45.7,61.0,51.9,43.0,91,68,35,30.27,30.15,10,1,33,0.02
2013-8-18,86.4,65.8,48.0,61.2,52.9,45.3,91,68,37,30.23,30.07,18,1,33,0.00
2013-8-19,90.1,68.7,54.1,64.3,57.3,50.2,89,70,46,30.11,30.00,15,2,31,0.00
2013-8-20,88.2,75.3,64.4,68.2,62.7,51.3,81,67,47,30.08,30.01,18,2,33,0.00
2013-8-21,91.0,78.0,67.6,70.5,65.4,58.5,87,67,49,30.04,29.90,16,3,29,0.12
2013-8-22,80.8,68.6,53.4,68.9,60.6,49.5,91,78,42,30.13,29.91,12,1,29,0.11
2013-8-23,81.9,63.5,45.0,61.5,53.2,42.3,91,72,44,30.23,30.13,10,1,33,0.00
2013-8-24,86.2,67.2,50.5,62.6,55.1,46.9,89,68,39,30.30,30.21,10,1,21,0.00
2013-8-25,91.6,75.2,54.3,71.6,62.1,51.1,90,65,49,30.22,30.01,14,3,36,0.06
2013-8-26,88.0,76.7,65.3,72.5,67.4,61.9,90,74,51,30.08,29.96,14,2,30,0.12
2013-8-27,79.9,70.7,64.0,71.6,66.7,60.8,90,87,73,30.01,29.85,4,0,17,0.50
2013-8-28,90.0,74.4,64.8,74.5,67.1,55.8,91,80,54,30.06,29.85,10,1,32,0.00
2013-8-29,91.8,74.1,57.9,71.8,64.8,55.2,91,75,46,30.10,29.97,10,1,28,0.00
2013-8-30,78.6,71.0,66.9,72.7,66.5,62.8,91,86,78,29.98,29.77,14,2,32,0.48
2013-8-31,81.0,69.4,59.2,67.1,62.2,51.4,91,79,56,29.91,29.82,10,1,42,0.71
2013-9-1,77.4,66.4,57.6,67.1,61.5,51.8,91,85,64,29.87,29.70,10,1,31,0.10
2013-9-2,60.4,56.0,52.9,56.5,51.8,49.3,91,86,78,29.93,29.79,16,5,32,0.93
2013-9-3,72.3,61.6,48.7,57.6,52.2,46.0,91,73,46,30.02,29.92,12,3,27,0.00
2013-9-4,69.6,60.2,45.0,61.2,53.2,41.5,91,79,47,30.16,29.93,15,2,20,0.79
2013-9-5,67.8,52.1,37.8,50.4,42.1,33.3,91,72,44,30.33,30.16,10,1,16,0.00
2013-9-6,77.4,60.2,40.6,60.8,49.9,32.4,91,71,49,30.25,29.97,12,1,17,0.79
2013-9-7,78.6,70.2,63.7,71.1,64.8,54.8,91,84,69,30.02,29.84,9,1,34,0.18
2013-9-8,76.1,62.4,49.3,62.4,53.3,46.4,91,74,46,30.17,30.01,10,1,31,0.00
2013-9-9,78.3,65.2,54.7,69.3,58.9,49.3,87,80,70,30.06,29.74,10,2,25,0.02
2013-9-10,90.0,79.3,68.2,73.4,70.1,65.1,90,75,53,29.98,29.74,14,2,32,0.47
2013-9-11,79.5,69.9,64.6,69.4,64.2,55.6,91,83,65,29.99,29.90,11,2,33,0.67
2013-9-12,66.6,59.4,50.5,63.7,52.9,43.7,91,80,60,30.06,29.91,15,2,32,1.60
2013-9-13,60.6,50.5,38.5,46.8,41.5,35.4,89,73,48,30.18,30.06,12,2,28,0.00
2013-9-14,68.2,51.3,34.7,54.1,43.5,32.0,91,76,54,30.16,30.01,12,1,20,0.02
2013-9-15,61.3,55.7,50.0,57.0,51.8,46.8,91,87,79,30.20,29.99,13,1,29,0.16
2013-9-16,64.0,49.7,37.8,46.9,40.9,32.2,90,74,45,30.42,30.20,10,1,30,0.03
2013-9-17,72.0,50.6,34.5,49.1,40.4,32.0,91,72,37,30.41,30.18,6,1,33,0.00
2013-9-18,73.0,61.6,43.5,57.7,51.2,39.2,87,70,54,30.18,29.95,11,2,33,0.00
2013-9-19,82.6,71.0,62.4,71.2,63.5,54.9,91,78,64,30.01,29.79,11,2,28,1.67
2013-9-20,74.7,67.3,59.4,66.6,63.8,55.4,91,89,84,29.79,29.67,13,2,32,0.12
2013-9-21,59.4,53.5,46.8,55.8,48.1,39.9,91,83,66,29.91,29.72,18,3,34,0.06
2013-9-22,54.3,48.1,43.2,44.4,40.9,37.9,86,76,64,30.11,29.91,11,1,32,0.04
2013-9-23,67.8,47.6,30.9,48.7,39.3,28.6,91,76,46,30.21,30.08,11,1,16,0.00
2013-9-24,73.8,50.9,34.5,54.5,42.8,29.8,91,77,45,30.17,30.02,8,1,30,0.00
2013-9-25,73.2,52.8,36.0,53.4,44.0,33.4,91,76,41,30.06,30.00,5,0,14,0.00
2013-9-26,80.1,53.7,35.2,55.9,43.2,32.7,91,73,33,30.15,30.03,9,0,15,0.00
2013-9-27,81.7,60.1,38.8,57.6,48.1,33.6,92,69,34,30.25,30.14,10,1,30,0.04
2013-9-28,77.9,65.5,54.9,58.1,53.8,49.8,87,68,47,30.16,29.85,15,4,35,0.00
2013-9-29,72.5,58.9,40.8,58.3,49.4,35.4,91,73,45,30.05,29.84,20,3,25,0.13
2013-9-30,71.8,53.5,36.0,55.0,44.2,33.4,91,74,44,30.02,29.83,9,1,23,0.39
2013-10-1,80.1,65.4,53.8,63.1,56.5,46.9,88,74,52,29.89,29.74,12,3,24,0.00
2013-10-2,72.5,58.8,42.4,60.3,46.0,39.7,91,67,34,30.08,29.86,11,1,30,0.00
2013-10-3,73.8,55.9,41.7,60.3,50.7,39.2,91,84,60,30.08,29.86,10,1,17,0.40
2013-10-4,59.0,56.8,55.0,56.3,54.2,50.7,92,91,89,30.11,29.92,8,0,14,0.95
2013-10-5,59.9,56.2,54.3,55.4,53.5,50.5,92,91,85,30.10,29.87,9,1,21,0.36
2013-10-6,69.6,58.9,49.6,65.1,56.3,47.3,92,91,84,29.87,29.63,15,1,28,1.82
2013-10-7,58.8,49.1,38.8,49.1,45.3,36.1,100,87,67,30.06,29.56,17,4,30,0.20
2013-10-8,70.5,52.0,34.5,56.3,42.8,32.4,99,74,44,30.21,30.06,9,2,18,0.49
2013-10-9,77.2,61.1,45.3,57.0,49.2,38.5,91,67,43,30.26,30.17,12,2,30,0.02
2013-10-10,78.6,55.0,39.0,54.1,44.6,33.8,92,73,33,30.23,30.11,6,0,12,0.00
2013-10-11,76.3,54.0,36.0,55.4,42.8,33.4,91,71,35,30.17,30.05,6,0,14,0.00
2013-10-12,80.4,63.2,43.5,59.0,49.4,39.2,89,64,37,30.06,29.93,13,2,34,0.02
2013-10-13,61.3,51.6,39.0,56.7,45.3,32.4,90,80,67,30.39,30.04,14,2,23,0.79
2013-10-14,62.8,45.1,29.8,47.1,36.8,27.5,91,75,45,30.46,30.28,9,1,16,0.79
2013-10-15,60.8,47.5,31.1,54.9,42.7,28.5,91,84,65,30.29,29.72,10,2,26,0.00
2013-10-16,57.7,51.3,47.1,55.1,47.9,37.4,91,89,82,29.85,29.68,13,3,31,0.08
2013-10-17,52.7,45.8,39.9,44.8,40.6,32.9,91,83,62,29.87,29.74,12,1,18,0.10
2013-10-18,56.5,44.0,33.1,49.5,40.6,30.6,91,88,72,29.80,29.73,13,0,27,0.27
2013-10-19,55.9,43.0,33.1,44.8,38.4,28.9,91,85,60,29.79,29.67,12,2,23,0.72
2013-10-20,53.8,42.9,34.7,43.5,37.0,32.2,91,81,55,29.82,29.67,9,1,30,0.05
2013-10-21,54.1,42.3,32.9,45.1,38.9,29.8,91,88,75,29.77,29.62,16,3,32,0.43
2013-10-22,45.3,36.8,32.2,39.7,33.6,29.5,91,88,74,29.86,29.66,20,4,28,0.41
2013-10-23,44.8,35.4,32.2,37.6,31.1,28.9,91,85,57,29.86,29.81,19,2,32,0.87
2013-10-24,45.3,36.7,32.0,38.7,33.2,29.7,91,87,71,30.12,29.84,17,4,34,0.00
2013-10-25,45.0,37.7,31.3,39.4,31.5,27.5,99,80,59,30.22,29.80,16,2,26,0.00
2013-10-30,53.8,51.2,40.3,45.3,42.9,31.4,89,74,70,29.95,29.72,10,3,14,0.00
2013-10-31,62.6,57.9,55.0,57.2,55.2,50.7,91,91,90,29.54,29.04,8,1,15,0.63
2013-11-1,55.0,46.7,36.7,52.2,43.7,33.3,92,89,84,29.68,28.94,21,6,35,0.63
2013-11-2,44.2,37.6,29.1,37.4,32.4,25.9,89,82,69,30.16,29.67,10,0,20,0.02
2013-11-3,48.2,34.9,16.0,31.6,27.5,15.6,91,76,51,30.39,30.15,10,2,30,0.00
2013-11-4,50.9,41.7,34.5,32.9,29.1,18.7,82,63,41,30.41,30.17,35,7,69,0.02
2013-11-5,56.5,48.5,45.7,46.9,40.1,32.0,87,73,60,30.28,30.01,14,2,20,0.02
2013-11-6,53.4,45.6,36.7,50.5,42.2,30.4,91,88,79,30.01,29.65,22,5,31,0.79
2013-11-7,38.5,35.5,33.1,37.2,30.1,28.8,89,81,74,30.08,29.98,15,4,31,0.04
2013-11-8,38.7,33.2,28.9,32.7,28.7,24.8,90,84,66,30.21,30.07,16,0,18,0.11
2013-11-9,46.0,39.7,34.3,42.1,35.3,27.7,90,84,71,30.08,29.64,21,5,28,0.46
2013-11-10,43.0,38.7,34.2,34.9,31.6,27.3,88,76,64,30.22,29.79,30,9,38,0.03
2013-11-11,39.0,30.3,26.2,34.1,24.6,14.9,90,79,64,30.36,29.96,24,5,36,1.02
2013-11-12,28.4,26.2,21.0,23.4,18.1,14.0,88,72,64,30.53,30.36,21,5,31,0.00
2013-11-13,39.2,30.3,16.5,28.2,21.1,12.4,88,70,53,30.43,29.91,20,5,35,0.00
2013-11-14,47.1,40.4,35.2,34.5,30.4,26.4,82,68,58,29.94,29.82,13,4,32,0.00
2013-11-15,55.8,43.8,37.6,39.0,34.9,29.8,85,72,53,29.96,29.84,12,2,32,0.00
2013-11-16,55.0,45.9,37.6,50.7,40.6,31.6,89,82,74,30.03,29.55,26,5,43,0.06
2013-11-17,62.2,54.4,43.0,58.3,51.2,39.9,93,89,84,29.57,28.99,27,7,38,2.44
2013-11-18,43.0,34.4,31.5,39.9,26.2,20.8,89,72,62,30.12,29.27,29,14,44,0.02
2013-11-19,37.9,30.6,23.9,25.5,21.9,14.0,84,70,57,30.37,30.12,20,3,24,0.77
2013-11-20,44.2,35.7,29.7,28.9,25.3,17.6,75,66,49,30.35,30.15,20,4,37,0.02
2013-11-21,43.2,39.4,35.8,36.9,33.6,27.7,90,80,68,30.21,30.16,7,1,14,0.77
2013-11-22,39.9,31.9,27.5,37.0,28.1,16.5,90,86,76,30.36,30.17,15,1,29,0.08
2013-11-23,30.6,19.0,15.4,24.8,11.9,0.0,89,74,63,30.53,29.90,41,10,54,0.00
2013-11-24,22.3,18.9,14.7,15.3,10.5,0.1,81,70,57,30.53,29.89,17,5,28,0.00
2013-11-25,37.0,29.4,22.3,28.4,23.7,14.0,88,79,63,30.14,29.83,19,6,32,0.00
2013-11-26,35.8,28.7,21.0,29.8,24.8,14.5,89,85,75,30.05,29.86,11,1,26,0.00
2013-11-27,25.2,20.0,7.3,16.7,11.6,-3.6,87,70,57,30.18,29.97,32,2,45,0.00
2013-11-28,14.2,6.7,3.2,10.9,2.2,-1.5,87,82,80,30.46,30.16,0,0,6,0.00
2013-11-29,37.9,23.2,1.9,21.9,16.1,-2.0,86,75,60,30.62,29.91,12,2,20,0.00
2013-11-30,37.4,31.6,18.0,30.4,25.6,17.6,88,79,73,30.47,29.89,13,3,21,0.03
2013-12-1,38.7,32.1,28.9,29.7,27.5,24.3,89,83,75,30.12,30.02,5,0,20,0.01
2013-12-2,36.1,29.5,27.5,25.5,23.7,21.0,85,79,75,30.02,29.90,7,0,34,0.03
2013-12-3,29.3,25.5,16.7,26.4,21.2,12.7,89,84,78,29.98,29.85,8,1,22,0.00
2013-12-4,46.8,34.7,29.3,43.7,31.8,21.0,98,89,88,29.92,29.42,17,2,26,0.21
2013-12-5,48.2,31.6,20.7,45.0,25.0,12.7,89,77,69,30.07,29.43,19,7,59,0.01
2013-12-6,21.0,19.6,19.0,14.4,12.6,10.6,83,74,66,30.36,29.91,19,5,28,0.00
2013-12-7,19.2,17.1,15.1,12.7,9.3,5.7,81,71,63,30.54,29.91,18,5,28,0.00
2013-12-8,19.0,17.3,15.4,15.4,10.6,0.5,87,75,67,30.51,29.90,12,2,19,0.00
2013-12-9,28.2,20.0,11.3,23.2,15.0,6.6,89,81,71,30.05,29.75,21,5,36,0.00
2013-12-10,16.5,14.4,10.9,12.4,9.6,2.1,86,81,75,30.03,29.74,28,6,44,0.00
2013-12-11,19.8,12.1,10.6,10.0,6.9,-2.2,85,80,74,30.34,29.91,18,6,28,0.00
2013-12-12,19.9,14.9,9.9,12.6,9.9,3.9,86,81,70,30.33,29.90,51,4,74,0.00
2013-12-13,19.0,11.5,3.7,11.8,2.6,-4.0,78,68,56,30.40,29.61,22,3,29,0.00
2013-12-14,20.1,14.0,4.5,13.6,8.9,-2.7,86,80,73,30.40,29.86,8,1,16,0.00
2013-12-15,21.2,17.1,9.9,16.8,13.4,4.6,88,85,78,30.00,29.73,16,1,35,0.00
2013-12-16,23.0,12.3,-3.3,10.2,4.9,-7.8,86,73,51,30.13,29.96,12,3,22,0.00
2013-12-17,26.8,21.1,14.5,22.1,17.4,9.9,89,86,82,29.95,29.78,10,2,28,0.00
2013-12-18,26.4,21.7,14.5,21.9,15.9,9.5,89,79,75,30.05,29.73,20,3,30,0.00
2013-12-19,29.8,23.7,16.9,25.5,19.3,13.5,89,83,78,30.09,29.71,13,1,20,0.00
2013-12-20,25.3,21.1,18.1,20.1,17.2,14.4,88,85,79,30.04,29.84,4,0,22,0.00
2013-12-21,28.8,24.4,19.6,23.2,20.5,16.0,89,85,77,29.98,29.82,8,0,16,0.00
2013-12-22,20.7,17.2,14.2,16.2,12.6,2.8,85,82,78,30.09,29.83,0,0,20,0.00
2013-12-23,19.0,11.6,7.0,12.0,6.9,-0.6,85,81,71,30.37,30.08,15,1,22,0.00
2013-12-24,7.9,1.5,-6.0,3.0,-3.5,-11.0,80,79,79,30.40,30.36,2,0,22,0.00
2013-12-30,11.1,10.5,9.9,5.7,5.2,-2.2,84,79,77,30.11,29.90,8,3,21,0.00
2013-12-31,10.2,9.1,1.0,6.4,3.9,-3.5,85,79,69,30.30,29.90,32,5,42,0.00
2014-1-1,13.1,6.9,1.6,2.3,-1.0,-5.8,80,70,48,30.43,29.91,11,1,22,0.00
2014-1-2,6.3,-6.0,-16.4,0.1,-11.7,-22.2,80,76,71,30.40,29.91,0,0,14,0.00